Time;durP1;ratioP1;P1;durP2;ratioP2;P2;SDS_P1;SDS_P2;PMS_P1;PMS_P2;Temp;Humidity;BMP_temperature;BMP_pressure;BME280_temperature;BME280_humidity;BME280_pressure;Samples;Min_cycle;Max_cycle;Signal;HPM_P1;HPM_P2
2022/08/01 00:01:52;;;;;;;2.72;2.47;;;;;;;20.04;73.09;94464.22;5034562;28;20213;-62
2022/08/01 00:04:18;;;;;;;2.55;1.90;;;;;;;20.00;73.37;94450.09;5052488;28;20549;-63
2022/08/01 00:06:43;;;;;;;3.47;2.00;;;;;;;20.04;72.84;94466.81;5034348;28;20220;-65
2022/08/01 00:09:09;;;;;;;4.93;2.25;;;;;;;20.02;72.27;94473.94;5052240;28;20602;-61
2022/08/01 00:11:34;;;;;;;5.47;1.92;;;;;;;20.08;72.20;94477.53;5052205;28;20613;-63
2022/08/01 00:13:59;;;;;;;2.90;1.98;;;;;;;20.13;71.33;94488.09;5034349;28;20193;-60
2022/08/01 00:16:25;;;;;;;3.05;2.67;;;;;;;20.14;71.13;94501.81;5051915;28;20230;-60
2022/08/01 00:18:51;;;;;;;2.40;1.90;;;;;;;20.16;70.92;94499.81;5052164;28;20182;-61
2022/08/01 00:21:17;;;;;;;2.47;2.10;;;;;;;20.11;71.72;94487.50;5052235;28;20588;-62
2022/08/01 00:23:45;;;;;;;5.25;2.00;;;;;;;20.10;71.44;94485.88;5051951;28;20182;-61
2022/08/01 00:26:10;;;;;;;4.15;1.80;;;;;;;20.07;71.19;94497.41;5052016;28;20229;-62
2022/08/01 00:28:36;;;;;;;2.30;2.00;;;;;;;20.18;72.08;94477.97;5051857;28;20196;-63
2022/08/01 00:31:02;;;;;;;1.90;1.80;;;;;;;20.38;72.37;94468.53;5034050;28;20216;-62
2022/08/01 00:33:27;;;;;;;3.15;1.92;;;;;;;20.46;72.50;94475.34;5034252;28;20196;-62
2022/08/01 00:35:53;;;;;;;4.95;2.40;;;;;;;20.43;74.05;94435.19;5052131;28;20597;-62
2022/08/01 00:38:18;;;;;;;5.18;2.95;;;;;;;20.35;76.11;94394.06;5051962;28;20217;-62
2022/08/01 00:40:44;;;;;;;4.45;3.60;;;;;;;20.38;77.93;94359.31;5051972;28;20636;-63
2022/08/01 00:43:09;;;;;;;3.70;3.40;;;;;;;20.10;79.42;94336.97;5051858;28;20643;-62
2022/08/01 00:45:35;;;;;;;4.90;4.50;;;;;;;19.77;80.42;94325.78;5051713;28;20217;-63
2022/08/01 00:48:00;;;;;;;5.28;4.22;;;;;;;19.58;82.05;94313.59;5050395;28;20181;-62
2022/08/01 00:50:26;;;;;;;5.30;4.00;;;;;;;19.39;83.56;94298.06;5051286;28;20287;-62
2022/08/01 00:52:54;;;;;;;6.35;4.13;;;;;;;19.23;84.85;94289.59;5051619;28;20193;-63
2022/08/01 00:55:20;;;;;;;4.50;4.10;;;;;;;19.24;85.71;94282.69;5051525;28;20324;-61
2022/08/01 00:57:46;;;;;;;6.53;4.18;;;;;;;18.98;86.75;94280.78;5050486;28;20178;-63
2022/08/01 01:00:13;;;;;;;6.68;4.20;;;;;;;18.89;86.20;94296.53;5051248;28;20547;-63
2022/08/01 01:02:38;;;;;;;4.85;4.35;;;;;;;18.94;86.87;94292.44;5051421;28;20674;-63
2022/08/01 01:05:04;;;;;;;5.78;4.10;;;;;;;18.87;87.73;94290.78;5051255;28;20565;-62
2022/08/01 01:07:56;;;;;;;4.45;4.05;;;;;;;18.70;88.30;94279.19;5051287;28;20214;-63
2022/08/01 01:11:01;;;;;;;4.97;4.47;;;;;;;18.56;89.71;94268.03;5051126;28;20189;-60
2022/08/01 01:13:29;;;;;;;5.38;4.85;;;;;;;18.73;90.56;94268.50;5036677;28;20216;-62
2022/08/01 01:16:01;;;;;;;5.43;4.05;;;;;;;18.96;88.74;94302.56;5051097;28;20596;-61
2022/08/01 01:18:32;;;;;;;6.25;4.45;;;;;;;18.99;87.62;94315.84;5051139;28;20181;-62
2022/08/01 01:21:08;;;;;;;4.00;3.70;;;;;;;19.06;86.10;94339.09;5051098;28;20571;-61
2022/08/01 01:24:10;;;;;;;9.82;4.15;;;;;;;19.01;87.26;94318.22;5051258;28;20189;-60
2022/08/01 01:26:53;;;;;;;5.57;4.90;;;;;;;18.99;87.84;94315.84;5051410;28;20602;-64
2022/08/01 01:29:19;;;;;;;5.68;5.10;;;;;;;18.99;88.34;94308.13;5051088;28;20569;-59
2022/08/01 01:32:06;;;;;;;6.20;5.20;;;;;;;18.94;90.52;94283.91;5050963;28;20213;-63
2022/08/01 01:34:36;;;;;;;6.50;5.85;;;;;;;18.96;89.26;94297.41;5051022;28;20192;-62
2022/08/01 01:37:06;;;;;;;7.22;5.88;;;;;;;18.83;90.40;94287.81;5050980;28;20585;-63
2022/08/01 01:39:34;;;;;;;6.10;5.10;;;;;;;18.71;91.65;94270.47;5050730;28;20192;-63
2022/08/01 01:42:01;;;;;;;5.28;4.78;;;;;;;18.80;91.82;94279.66;5050635;28;20217;-62
2022/08/01 01:44:27;;;;;;;5.97;5.30;;;;;;;18.94;91.03;94291.63;5050822;28;20232;-61
2022/08/01 01:46:56;;;;;;;5.68;5.18;;;;;;;18.93;90.94;94295.19;5051042;28;20225;-64
2022/08/01 01:49:25;;;;;;;6.43;5.82;;;;;;;19.07;90.25;94307.16;5032845;28;20211;-63
2022/08/01 01:51:54;;;;;;;6.13;5.68;;;;;;;19.05;91.83;94285.94;5051000;28;20217;-63
2022/08/01 01:54:21;;;;;;;5.80;5.30;;;;;;;19.13;91.20;94293.50;5032703;28;20193;-62
2022/08/01 01:56:49;;;;;;;6.10;4.63;;;;;;;19.06;91.24;94303.00;5050692;28;20225;-62
2022/08/01 01:59:26;;;;;;;5.57;4.97;;;;;;;18.96;91.72;94284.50;5050394;28;20189;-61
2022/08/01 02:01:55;;;;;;;5.47;5.07;;;;;;;18.86;92.30;94284.88;5050581;28;20213;-62
2022/08/01 02:04:22;;;;;;;6.28;5.00;;;;;;;18.77;93.33;94274.88;5050533;28;20727;-62
2022/08/01 02:06:51;;;;;;;5.13;4.68;;;;;;;18.88;93.47;94279.50;5050741;28;20217;-62
2022/08/01 02:09:19;;;;;;;5.22;4.72;;;;;;;18.77;90.36;94305.78;5052305;28;20185;-62
2022/08/01 02:11:47;;;;;;;7.97;4.88;;;;;;;18.94;89.46;94312.25;5036346;28;20232;-62
2022/08/01 02:14:15;;;;;;;4.85;4.20;;;;;;;18.96;89.56;94318.81;5053995;28;20186;-64
2022/08/01 02:16:44;;;;;;;6.22;3.60;;;;;;;18.82;87.02;94344.66;5053894;28;20643;-62
2022/08/01 02:19:10;;;;;;;6.95;4.85;;;;;;;19.03;89.79;94311.91;5053878;28;20203;-62
2022/08/01 02:21:43;;;;;;;5.03;4.53;;;;;;;19.00;89.55;94317.44;5053947;28;20213;-62
2022/08/01 02:24:35;;;;;;;4.38;3.97;;;;;;;19.00;89.03;94324.38;5054092;28;20192;-60
2022/08/01 02:27:07;;;;;;;4.78;4.30;;;;;;;18.94;88.95;94320.78;5009031;28;20266;-64
2022/08/01 02:29:40;;;;;;;5.28;4.88;;;;;;;18.93;90.09;94308.88;5053746;28;20209;-60
2022/08/01 02:32:09;;;;;;;5.32;4.68;;;;;;;18.65;91.96;94284.09;5053919;28;20209;-64
2022/08/01 02:34:35;;;;;;;7.40;4.97;;;;;;;18.61;92.70;94275.97;5035802;28;20181;-62
2022/08/01 02:37:02;;;;;;;8.50;4.93;;;;;;;18.52;94.51;94264.22;5053472;28;20213;-63
2022/08/01 02:39:31;;;;;;;8.18;4.90;;;;;;;18.82;90.89;94314.56;5053619;28;20182;-63
2022/08/01 02:42:01;;;;;;;4.68;4.18;;;;;;;18.65;92.26;94291.84;5036041;28;20228;-63
2022/08/01 02:44:31;;;;;;;6.95;4.28;;;;;;;18.57;92.33;94295.34;5053499;28;20270;-64
2022/08/01 02:47:02;;;;;;;4.35;3.97;;;;;;;18.58;91.63;94296.97;5035279;28;20343;-65
2022/08/01 02:49:31;;;;;;;7.65;4.30;;;;;;;18.63;91.86;94301.53;5053406;28;20189;-65
2022/08/01 02:51:58;;;;;;;5.18;4.53;;;;;;;18.67;92.17;94297.59;5053843;28;20591;-63
2022/08/01 02:54:26;;;;;;;4.80;3.85;;;;;;;18.74;90.26;94321.63;5053365;28;20189;-62
2022/08/01 02:56:53;;;;;;;7.18;4.05;;;;;;;18.95;88.57;94334.44;5035521;28;20260;-61
2022/08/01 02:59:25;;;;;;;4.40;4.00;;;;;;;18.94;88.70;94335.44;5053270;28;20189;-63
2022/08/01 03:01:54;;;;;;;5.20;3.95;;;;;;;18.59;91.28;94297.72;5035445;28;20214;-60
2022/08/01 03:04:20;;;;;;;6.22;3.58;;;;;;;18.84;89.21;94337.53;5053323;28;20268;-61
2022/08/01 03:06:47;;;;;;;5.55;3.80;;;;;;;18.81;87.51;94355.94;5034094;28;20239;-63
2022/08/01 03:09:13;;;;;;;4.90;3.78;;;;;;;18.49;88.76;94338.44;5053289;28;20186;-62
2022/08/01 03:11:41;;;;;;;4.95;3.40;;;;;;;18.52;87.96;94348.38;5053089;28;20209;-60
2022/08/01 03:14:09;;;;;;;4.18;3.88;;;;;;;18.44;87.88;94337.22;5053146;28;20185;-62
2022/08/01 03:16:37;;;;;;;5.03;3.97;;;;;;;18.53;87.40;94355.13;5053255;28;20595;-62
2022/08/01 03:19:04;;;;;;;4.90;3.70;;;;;;;18.37;89.54;94320.91;5053007;28;20279;-63
2022/08/01 03:21:31;;;;;;;5.45;3.92;;;;;;;18.48;88.20;94336.88;5052138;28;20694;-61
2022/08/01 03:24:00;;;;;;;5.07;3.75;;;;;;;18.56;88.83;94336.75;5052906;28;20332;-60
2022/08/01 03:26:30;;;;;;;5.93;4.30;;;;;;;18.30;90.94;94299.44;5052875;28;20267;-64
2022/08/01 03:29:01;;;;;;;5.43;3.80;;;;;;;18.17;93.33;94294.22;5052854;28;20193;-63
2022/08/01 03:31:28;;;;;;;5.55;4.22;;;;;;;18.28;91.59;94316.84;5052999;28;20656;-62
2022/08/01 03:33:54;;;;;;;5.43;4.43;;;;;;;18.44;90.29;94324.34;5052979;28;20223;-61
2022/08/01 03:36:26;;;;;;;5.05;3.88;;;;;;;18.54;90.23;94330.97;5053041;28;20213;-62
2022/08/01 03:38:55;;;;;;;4.40;4.00;;;;;;;18.53;89.63;94335.31;5034645;28;20222;-63
2022/08/01 03:41:23;;;;;;;7.47;4.22;;;;;;;18.59;89.30;94344.06;5034812;28;20305;-61
2022/08/01 03:43:56;;;;;;;8.05;4.65;;;;;;;18.56;89.53;94344.47;5052471;28;20331;-61
2022/08/01 03:46:32;;;;;;;5.30;4.80;;;;;;;18.27;91.16;94312.72;5052483;28;20221;-60
2022/08/01 03:49:03;;;;;;;5.40;4.28;;;;;;;18.39;90.98;94326.66;5052688;28;20193;-62
2022/08/01 03:51:30;;;;;;;5.88;4.57;;;;;;;18.42;91.25;94330.66;5070731;22;20293;-62
2022/08/01 03:53:56;;;;;;;8.40;4.97;;;;;;;18.27;90.60;94330.72;5072398;28;20337;-62
2022/08/01 03:56:23;;;;;;;4.78;3.90;;;;;;;18.02;91.98;94308.09;5072430;28;20216;-63
2022/08/01 03:58:50;;;;;;;4.60;4.18;;;;;;;18.13;91.75;94316.13;5072534;28;20188;-63
2022/08/01 04:01:17;;;;;;;4.32;3.05;;;;;;;17.97;88.10;94365.25;5072539;28;20236;-63
2022/08/01 04:03:43;;;;;;;4.60;3.10;;;;;;;17.90;89.27;94353.28;5054377;28;20729;-61
2022/08/01 04:06:10;;;;;;;3.10;2.72;;;;;;;17.79;88.03;94370.00;5072266;28;20225;-63
2022/08/01 04:08:40;;;;;;;3.40;2.78;;;;;;;17.90;84.66;94418.38;5072209;28;20193;-62
2022/08/01 04:11:08;;;;;;;4.95;2.83;;;;;;;18.06;81.98;94459.34;5054123;28;20251;-61
2022/08/01 04:13:33;;;;;;;3.78;3.08;;;;;;;18.00;83.27;94433.53;5072210;28;20243;-63
2022/08/01 04:16:05;;;;;;;3.20;2.75;;;;;;;18.09;82.48;94442.75;5071903;28;20212;-65
2022/08/01 04:18:31;;;;;;;5.05;2.35;;;;;;;18.10;82.31;94450.28;5054073;28;20197;-64
2022/08/01 04:20:57;;;;;;;3.80;2.40;;;;;;;18.30;81.61;94456.44;5054186;28;20251;-65
2022/08/01 04:23:25;;;;;;;5.03;2.50;;;;;;;18.33;81.26;94471.53;5054130;28;20788;-64
2022/08/01 04:25:53;;;;;;;4.20;2.70;;;;;;;18.19;81.86;94438.91;5053905;28;20266;-63
2022/08/01 04:28:22;;;;;;;5.20;2.85;;;;;;;18.30;80.28;94469.31;5071867;28;20260;-63
2022/08/01 04:30:50;;;;;;;8.95;3.35;;;;;;;18.38;91.17;94294.19;5072003;28;20300;-61
2022/08/01 04:33:18;;;;;;;4.22;3.33;;;;;;;18.52;91.84;94300.28;5071725;28;20180;-61
2022/08/01 04:35:46;;;;;;;6.85;3.08;;;;;;;19.03;95.80;94288.72;5053622;28;20224;-61
2022/08/01 04:38:16;;;;;;;3.42;3.10;;;;;;;19.40;88.27;94375.19;5053809;28;20188;-62
2022/08/01 04:40:45;;;;;;;7.78;3.58;;;;;;;19.77;85.28;94421.22;5071790;28;20208;-64
2022/08/01 04:43:11;;;;;;;7.50;3.35;;;;;;;19.88;82.14;94446.47;5071720;28;20598;-64
2022/08/01 04:45:38;;;;;;;3.40;2.72;;;;;;;20.24;80.57;94469.47;5071873;28;20303;-60
2022/08/01 04:48:06;;;;;;;3.83;3.40;;;;;;;20.55;80.91;94463.81;5071468;28;20269;-63
2022/08/01 04:50:32;;;;;;;5.50;2.92;;;;;;;20.83;82.76;94415.38;5071622;28;20662;-61
2022/08/01 04:52:57;;;;;;;5.57;3.28;;;;;;;20.98;79.95;94488.38;5071743;28;20212;-62
2022/08/01 04:55:23;;;;;;;8.05;2.85;;;;;;;21.17;79.46;94495.38;5071509;28;20205;-60
2022/08/01 04:57:49;;;;;;;5.65;3.60;;;;;;;21.37;77.54;94516.84;5071387;28;20650;-60
2022/08/01 05:00:16;;;;;;;4.53;3.72;;;;;;;21.23;74.19;94568.78;5071543;28;20264;-60
2022/08/01 05:02:41;;;;;;;4.20;3.42;;;;;;;21.19;76.10;94508.13;5071574;28;20258;-61
2022/08/01 05:05:08;;;;;;;6.50;3.72;;;;;;;21.01;74.87;94536.31;5071120;28;20643;-61
2022/08/01 05:07:35;;;;;;;5.43;3.80;;;;;;;21.08;74.11;94545.69;5071391;28;20251;-61
2022/08/01 05:10:02;;;;;;;4.47;3.63;;;;;;;20.85;72.07;94576.22;5071170;28;20188;-65
2022/08/01 05:12:27;;;;;;;9.50;4.22;;;;;;;20.87;73.99;94538.84;5053317;28;20184;-61
2022/08/01 05:14:53;;;;;;;10.88;5.00;;;;;;;20.83;74.06;94534.25;5071694;28;20184;-63
2022/08/01 05:17:18;;;;;;;6.35;4.28;;;;;;;20.71;71.31;94590.06;5071107;28;20274;-62
2022/08/01 05:19:44;;;;;;;8.00;4.80;;;;;;;20.72;75.10;94488.31;5053282;28;20263;-62
2022/08/01 05:22:10;;;;;;;7.07;4.60;;;;;;;20.49;73.68;94526.59;5071005;28;20243;-61
2022/08/01 05:24:38;;;;;;;10.18;4.55;;;;;;;20.12;72.22;94552.81;5071164;28;20260;-61
2022/08/01 05:27:04;;;;;;;11.52;4.38;;;;;;;19.84;73.03;94527.84;5070907;28;20755;-62
2022/08/01 05:29:30;;;;;;;12.07;3.97;;;;;;;19.82;73.05;94526.41;5053316;28;20298;-62
2022/08/01 05:31:56;;;;;;;7.65;4.18;;;;;;;19.74;73.81;94506.72;5071271;28;20698;-63
2022/08/01 05:34:22;;;;;;;6.47;3.70;;;;;;;19.92;73.74;94508.81;5051741;28;20200;-62
2022/08/01 05:36:48;;;;;;;11.75;4.13;;;;;;;19.94;72.73;94538.63;5069927;28;20209;-66
2022/08/01 05:39:14;;;;;;;6.05;3.95;;;;;;;20.10;72.97;94525.41;5071196;28;20196;-62
2022/08/01 05:41:40;;;;;;;5.00;3.22;;;;;;;20.80;74.98;94486.38;5052969;28;20592;-63
2022/08/01 05:44:06;;;;;;;8.48;3.70;;;;;;;21.16;71.20;94571.38;5070278;28;20196;-63
2022/08/01 05:46:31;;;;;;;6.15;3.55;;;;;;;21.58;71.35;94565.84;5052547;28;20213;-62
2022/08/01 05:48:58;;;;;;;4.32;3.10;;;;;;;21.63;65.43;94687.63;5070818;28;20238;-64
2022/08/01 05:51:24;;;;;;;5.95;3.05;;;;;;;21.73;66.32;94649.22;5052838;28;20220;-65
2022/08/01 05:53:49;;;;;;;5.15;2.90;;;;;;;21.68;65.93;94633.50;5070969;28;20196;-62
2022/08/01 05:56:15;;;;;;;6.28;2.80;;;;;;;22.12;65.46;94655.47;5071025;28;20235;-64
2022/08/01 05:58:40;;;;;;;3.67;3.03;;;;;;;21.85;62.96;94701.25;5070654;28;20192;-62
2022/08/01 06:01:06;;;;;;;8.82;3.05;;;;;;;21.63;62.19;94715.34;5070811;28;20213;-63
2022/08/01 06:03:33;;;;;;;7.50;3.55;;;;;;;21.65;64.20;94654.59;5070700;28;20177;-64
2022/08/01 06:06:01;;;;;;;3.55;2.70;;;;;;;21.56;63.25;94668.72;5052444;28;20299;-62
2022/08/01 06:08:27;;;;;;;4.55;2.50;;;;;;;21.58;62.08;94687.44;5052389;28;20181;-62
2022/08/01 06:10:53;;;;;;;4.05;2.35;;;;;;;21.65;60.30;94736.63;5078000;22;20250;-62
2022/08/01 06:13:19;;;;;;;4.65;2.75;;;;;;;21.71;61.45;94697.03;5052406;28;20189;-63
2022/08/01 06:15:45;;;;;;;6.47;2.88;;;;;;;21.98;62.46;94669.41;5070050;28;20219;-63
2022/08/01 06:18:11;;;;;;;6.32;2.50;;;;;;;22.09;60.27;94741.31;5070461;28;20654;-61
2022/08/01 06:20:36;;;;;;;2.75;2.00;;;;;;;21.50;58.02;94770.41;5070461;28;20695;-62
2022/08/01 06:23:02;;;;;;;3.95;2.65;;;;;;;21.51;57.49;94781.56;5052489;28;20276;-62
2022/08/01 06:25:27;;;;;;;5.70;2.30;;;;;;;21.42;57.50;94762.81;5070242;28;20621;-63
2022/08/01 06:27:53;;;;;;;4.78;2.00;;;;;;;21.52;57.22;94762.47;5052152;28;20681;-63
2022/08/01 06:30:18;;;;;;;4.38;2.40;;;;;;;21.50;58.91;94713.50;5070121;28;20188;-62
2022/08/01 06:32:44;;;;;;;2.47;1.88;;;;;;;21.70;57.90;94732.47;5069934;28;20197;-63
2022/08/01 06:35:09;;;;;;;2.85;1.70;;;;;;;21.71;55.83;94785.03;5069680;28;20272;-63
2022/08/01 06:37:35;;;;;;;3.38;2.17;;;;;;;21.89;54.93;94806.03;5069885;28;20185;-63
2022/08/01 06:40:06;;;;;;;2.70;1.88;;;;;;;22.04;58.12;94710.81;5069988;28;20185;-61
2022/08/01 06:42:35;;;;;;;3.25;1.52;;;;;;;21.82;55.25;94779.31;5070272;28;20691;-63
2022/08/01 06:45:03;;;;;;;2.53;1.55;;;;;;;21.77;56.59;94737.66;5052241;28;20208;-63
2022/08/01 06:47:28;;;;;;;4.43;2.25;;;;;;;21.75;57.17;94711.94;5051950;28;20378;-63
2022/08/01 06:49:54;;;;;;;2.08;1.80;;;;;;;22.02;55.49;94763.84;5051972;28;20649;-63
2022/08/01 06:52:19;;;;;;;2.65;2.00;;;;;;;22.04;55.65;94757.44;5070091;28;20211;-63
2022/08/01 06:54:44;;;;;;;4.78;2.22;;;;;;;21.91;55.52;94743.69;5069905;28;20545;-60
2022/08/01 06:57:10;;;;;;;2.20;2.03;;;;;;;21.95;55.08;94748.28;5055094;28;20591;-61
2022/08/01 06:59:35;;;;;;;2.30;2.08;;;;;;;21.96;55.39;94743.91;5073356;28;20224;-61
2022/08/01 07:02:01;;;;;;;5.63;2.30;;;;;;;21.96;57.02;94679.19;5073169;28;20201;-62
2022/08/01 07:04:27;;;;;;;5.03;2.40;;;;;;;22.14;56.73;94674.19;5073272;28;20184;-62
2022/08/01 07:06:52;;;;;;;5.90;2.50;;;;;;;22.10;55.66;94724.78;5073476;28;20693;-61
2022/08/01 07:09:17;;;;;;;3.17;2.17;;;;;;;22.00;56.65;94682.97;5073039;28;20192;-61
2022/08/01 07:11:43;;;;;;;2.50;2.30;;;;;;;22.15;56.29;94701.69;5073460;28;20213;-60
2022/08/01 07:14:08;;;;;;;3.13;2.40;;;;;;;22.19;56.25;94698.50;5073228;28;20288;-62
2022/08/01 07:16:33;;;;;;;4.10;2.20;;;;;;;22.23;56.46;94691.13;5073211;28;20197;-61
2022/08/01 07:18:59;;;;;;;4.53;2.45;;;;;;;22.36;56.16;94699.66;5073144;28;20639;-61
2022/08/01 07:21:25;;;;;;;2.00;1.67;;;;;;;22.32;56.18;94700.28;5073059;28;20220;-62
2022/08/01 07:23:51;;;;;;;2.65;2.30;;;;;;;22.32;56.21;94713.25;5055174;28;20552;-62
2022/08/01 07:26:17;;;;;;;3.60;2.20;;;;;;;22.15;56.35;94681.75;5054604;28;20225;-65
2022/08/01 07:28:42;;;;;;;3.17;2.78;;;;;;;22.32;56.92;94676.97;5072856;28;20243;-64
2022/08/01 07:31:08;;;;;;;2.63;2.42;;;;;;;22.37;56.84;94680.56;5073229;28;20209;-63
2022/08/01 07:33:33;;;;;;;5.38;2.47;;;;;;;22.58;56.05;94713.25;5072815;28;20279;-63
2022/08/01 07:35:58;;;;;;;5.10;2.67;;;;;;;22.63;58.25;94645.25;5072866;28;20201;-60
2022/08/01 07:38:24;;;;;;;4.45;2.47;;;;;;;22.56;56.05;94694.50;5072769;28;20195;-62
2022/08/01 07:40:49;;;;;;;6.53;2.22;;;;;;;22.60;56.61;94687.94;5054742;28;20209;-63
2022/08/01 07:43:15;;;;;;;2.10;1.90;;;;;;;22.73;55.13;94726.78;5054626;28;20204;-62
2022/08/01 07:45:41;;;;;;;8.98;2.70;;;;;;;22.86;55.72;94710.41;5072554;28;20612;-61
2022/08/01 07:48:07;;;;;;;3.55;2.13;;;;;;;23.06;54.89;94742.28;5072471;28;20220;-61
2022/08/01 07:50:33;;;;;;;3.65;2.35;;;;;;;22.89;55.07;94725.53;5072493;28;20200;-61
2022/08/01 07:52:59;;;;;;;7.25;2.53;;;;;;;22.96;54.26;94752.25;5072565;28;20185;-61
2022/08/01 07:55:24;;;;;;;4.60;2.38;;;;;;;22.63;53.62;94754.91;5072460;28;20207;-62
2022/08/01 07:57:49;;;;;;;3.55;2.10;;;;;;;22.68;53.49;94762.88;5072516;28;20573;-63
2022/08/01 08:00:15;;;;;;;3.05;2.20;;;;;;;22.77;54.27;94738.34;5072302;28;20275;-63
2022/08/01 08:02:41;;;;;;;4.03;2.10;;;;;;;22.81;53.73;94743.91;5072524;28;20193;-63
2022/08/01 08:05:07;;;;;;;2.40;2.20;;;;;;;23.02;54.43;94721.13;5054213;28;20270;-62
2022/08/01 08:07:33;;;;;;;3.92;2.42;;;;;;;23.14;53.93;94739.44;5072021;28;20299;-64
2022/08/01 08:09:59;;;;;;;3.05;2.28;;;;;;;22.87;53.82;94751.69;5072052;28;20651;-62
2022/08/01 08:12:24;;;;;;;10.02;2.70;;;;;;;22.90;54.35;94737.53;5072017;28;20296;-62
2022/08/01 08:14:50;;;;;;;6.43;2.40;;;;;;;23.07;54.74;94712.72;5072011;28;20181;-63
2022/08/01 08:17:16;;;;;;;4.97;2.25;;;;;;;23.04;53.81;94758.03;5072428;28;20708;-63
2022/08/01 08:19:41;;;;;;;5.40;2.40;;;;;;;23.04;54.55;94733.91;5072052;28;20577;-62
2022/08/01 08:22:07;;;;;;;7.25;2.45;;;;;;;23.11;53.89;94739.84;5072397;28;20202;-63
2022/08/01 08:24:34;;;;;;;5.97;2.55;;;;;;;23.21;53.81;94738.41;5037367;28;20219;-62
2022/08/01 08:27:00;;;;;;;2.35;2.08;;;;;;;23.26;53.13;94754.19;5071778;28;20270;-63
2022/08/01 08:29:29;;;;;;;3.83;2.60;;;;;;;23.32;53.21;94762.97;5071956;28;20735;-63
2022/08/01 08:31:55;;;;;;;2.72;2.38;;;;;;;23.21;53.24;94761.78;5071942;28;20662;-63
2022/08/01 08:34:22;;;;;;;3.78;2.30;;;;;;;23.48;53.02;94752.13;5071930;28;20259;-63
2022/08/01 08:36:48;;;;;;;2.75;2.42;;;;;;;23.47;52.08;94775.69;5072011;28;20677;-62
2022/08/01 08:39:20;;;;;;;4.18;2.42;;;;;;;23.43;52.55;94787.50;5071562;28;20267;-63
2022/08/01 08:41:46;;;;;;;5.90;2.53;;;;;;;23.43;52.59;94777.13;5053672;28;20216;-63
2022/08/01 08:44:11;;;;;;;3.53;2.60;;;;;;;23.24;52.38;94770.94;5071549;28;20219;-63
2022/08/01 08:46:43;;;;;;;3.00;2.47;;;;;;;23.46;53.22;94754.13;5071712;28;20315;-61
2022/08/01 08:49:10;;;;;;;4.53;2.47;;;;;;;23.72;51.20;94800.75;5053559;28;20228;-61
2022/08/01 08:51:39;;;;;;;2.60;2.40;;;;;;;24.02;52.55;94769.81;5071665;28;20616;-62
2022/08/01 08:54:07;;;;;;;7.60;2.65;;;;;;;24.12;52.06;94778.78;5071736;28;20246;-62
2022/08/01 08:56:35;;;;;;;3.33;2.60;;;;;;;24.04;50.56;94836.19;5079196;22;20228;-63
2022/08/01 08:59:03;;;;;;;2.50;2.30;;;;;;;23.92;48.94;94866.38;5071531;28;20677;-62
2022/08/01 09:01:32;;;;;;;7.18;2.83;;;;;;;23.88;48.64;94869.59;5071489;28;20224;-62
2022/08/01 09:03:58;;;;;;;7.00;2.50;;;;;;;24.04;50.75;94802.41;5071358;28;20197;-62
2022/08/01 09:06:24;;;;;;;3.60;2.58;;;;;;;24.13;49.51;94841.94;5071370;28;20729;-61
2022/08/01 09:08:49;;;;;;;2.75;1.95;;;;;;;24.13;48.38;94860.13;5071294;28;20200;-61
2022/08/01 09:11:15;;;;;;;8.60;2.65;;;;;;;24.13;48.65;94854.94;5071484;28;20559;-61
2022/08/01 09:13:40;;;;;;;6.85;2.35;;;;;;;24.05;49.29;94808.41;5071227;28;20194;-61
2022/08/01 09:16:06;;;;;;;3.92;2.30;;;;;;;23.98;48.27;94852.56;5071332;28;20296;-64
2022/08/01 09:18:40;;;;;;;2.90;2.08;;;;;;;24.08;47.31;94857.34;5070382;28;20611;-61
2022/08/01 09:21:05;;;;;;;2.25;2.05;;;;;;;24.04;47.38;94862.16;5071233;28;20208;-62
2022/08/01 09:23:33;;;;;;;4.65;2.70;;;;;;;24.18;47.95;94855.09;5071120;28;20181;-63
2022/08/01 09:25:58;;;;;;;2.80;2.40;;;;;;;24.30;47.41;94855.25;5071067;28;20259;-63
2022/08/01 09:28:29;;;;;;;4.55;2.42;;;;;;;24.28;47.21;94878.84;5071121;28;20215;-63
2022/08/01 09:30:56;;;;;;;2.95;2.17;;;;;;;24.43;47.43;94855.97;5070834;28;20693;-62
2022/08/01 09:33:22;;;;;;;2.60;2.40;;;;;;;24.72;47.49;94851.97;5071063;28;20189;-62
2022/08/01 09:35:57;;;;;;;4.30;2.00;;;;;;;24.60;45.23;94921.28;5070998;28;20581;-64
2022/08/01 09:38:29;;;;;;;2.25;1.80;;;;;;;24.65;45.25;94911.81;5070912;28;20270;-63
2022/08/01 09:40:58;;;;;;;2.50;1.92;;;;;;;24.58;44.44;94928.47;5070930;28;20212;-64
2022/08/01 09:43:26;;;;;;;2.63;2.03;;;;;;;25.02;45.77;94878.19;5071154;28;20184;-63
2022/08/01 09:45:52;;;;;;;5.15;1.95;;;;;;;25.17;45.48;94874.22;5052605;28;20220;-63
2022/08/01 09:48:19;;;;;;;6.00;2.17;;;;;;;25.22;46.79;94837.16;5052591;28;20215;-64
2022/08/01 09:50:47;;;;;;;2.60;1.90;;;;;;;25.23;43.70;94942.88;5052664;28;20204;-63
2022/08/01 09:53:14;;;;;;;4.63;2.22;;;;;;;25.01;44.16;94916.41;5070532;28;20180;-64
2022/08/01 09:55:41;;;;;;;3.38;2.10;;;;;;;25.36;44.61;94881.06;5070717;28;20714;-63
2022/08/01 09:58:06;;;;;;;3.97;2.05;;;;;;;25.49;44.69;94882.78;5052772;28;20267;-63
2022/08/01 10:00:34;;;;;;;2.80;2.28;;;;;;;25.40;44.71;94860.59;5070962;28;20228;-62
2022/08/01 10:03:22;;;;;;;5.63;2.10;;;;;;;25.49;45.34;94851.53;5070356;28;20234;-63
2022/08/01 10:05:48;;;;;;;4.43;1.95;;;;;;;25.98;48.19;94751.56;5070603;28;20204;-63
2022/08/01 10:08:13;;;;;;;3.92;2.30;;;;;;;25.96;45.88;94852.63;5070359;28;20212;-63
2022/08/01 10:10:39;;;;;;;3.22;1.80;;;;;;;25.26;43.87;94913.81;5070466;28;20725;-60
2022/08/01 10:13:05;;;;;;;3.38;2.05;;;;;;;25.32;45.28;94843.47;5070612;28;20189;-63
2022/08/01 10:15:31;;;;;;;2.50;2.00;;;;;;;25.88;43.70;94905.81;5070314;28;20690;-63
2022/08/01 10:18:00;;;;;;;4.30;2.40;;;;;;;26.22;43.67;94894.03;5070572;28;20199;-63
2022/08/01 10:20:29;;;;;;;2.22;2.03;;;;;;;26.16;43.61;94887.09;5070258;28;20216;-62
2022/08/01 10:22:57;;;;;;;6.45;2.70;;;;;;;26.14;43.56;94886.50;5070287;28;20185;-64
2022/08/01 10:25:23;;;;;;;2.10;1.90;;;;;;;26.49;42.08;94947.41;5070266;28;20219;-63
2022/08/01 10:27:54;;;;;;;2.38;2.00;;;;;;;27.12;41.46;94953.78;5070188;28;20205;-63
2022/08/01 10:30:21;;;;;;;3.33;1.75;;;;;;;26.51;41.29;94956.63;5054011;28;20694;-63
2022/08/01 10:32:47;;;;;;;2.20;2.00;;;;;;;26.41;41.60;94939.91;5055621;28;20192;-60
2022/08/01 10:35:17;;;;;;;1.67;1.42;;;;;;;26.28;42.71;94899.13;5073542;28;20189;-64
2022/08/01 10:37:50;;;;;;;3.35;1.90;;;;;;;26.53;42.89;94892.00;5056100;28;20200;-61
2022/08/01 10:40:16;;;;;;;1.95;1.67;;;;;;;26.29;43.01;94882.50;5055878;28;20255;-61
2022/08/01 10:42:43;;;;;;;2.30;2.10;;;;;;;26.75;42.38;94886.28;5073677;28;20629;-63
2022/08/01 10:45:11;;;;;;;2.30;1.80;;;;;;;26.35;43.78;94837.28;5073530;28;20227;-63
2022/08/01 10:47:55;;;;;;;2.40;2.20;;;;;;;26.43;43.79;94833.53;5073704;28;20208;-62
2022/08/01 10:50:46;;;;;;;4.15;2.03;;;;;;;26.47;43.38;94861.56;5073573;28;20195;-63
2022/08/01 10:53:15;;;;;;;2.42;2.20;;;;;;;26.49;43.11;94851.72;5073529;28;20222;-62
2022/08/01 10:55:56;;;;;;;3.03;2.13;;;;;;;26.66;43.04;94862.31;5073122;28;20221;-63
2022/08/01 10:58:36;;;;;;;3.17;1.95;;;;;;;27.11;42.59;94871.25;5073499;28;20192;-61
2022/08/01 11:01:27;;;;;;;5.38;1.85;;;;;;;27.02;41.41;94921.41;5073984;28;20212;-64
2022/08/01 11:03:58;;;;;;;2.83;1.83;;;;;;;26.96;41.51;94919.69;5055365;28;20276;-64
2022/08/01 11:06:39;;;;;;;1.90;1.70;;;;;;;26.77;41.16;94905.13;5073441;28;20273;-63
2022/08/01 11:09:14;;;;;;;2.20;1.90;;;;;;;26.56;41.95;94859.47;5073182;28;20181;-64
2022/08/01 11:12:10;;;;;;;1.63;1.48;;;;;;;26.60;42.10;94855.38;5073390;28;20212;-66
2022/08/01 11:15:00;;;;;;;1.50;1.40;;;;;;;26.73;42.22;94868.25;5073381;28;20267;-64
2022/08/01 11:17:43;;;;;;;3.30;1.70;;;;;;;26.72;42.21;94845.00;5073109;28;20216;-63
2022/08/01 11:20:12;;;;;;;1.92;1.83;;;;;;;27.10;42.73;94856.63;5054888;28;20177;-64
2022/08/01 11:22:59;;;;;;;2.00;1.83;;;;;;;27.30;41.88;94861.50;5073059;28;20314;-64
2022/08/01 11:25:48;;;;;;;2.10;2.00;;;;;;;27.77;42.26;94826.50;5073084;28;20270;-65
2022/08/01 11:28:17;;;;;;;4.70;2.00;;;;;;;27.51;40.50;94915.81;5048630;28;20221;-63
2022/08/01 11:30:54;;;;;;;1.83;1.55;;;;;;;27.72;40.16;94903.97;5072667;28;20702;-64
2022/08/01 11:33:41;;;;;;;2.75;1.90;;;;;;;27.37;40.65;94898.78;5055047;28;20223;-61
2022/08/01 11:36:09;;;;;;;5.07;2.03;;;;;;;26.96;41.24;94851.84;5072925;28;20315;-62
2022/08/01 11:38:39;;;;;;;3.55;1.90;;;;;;;27.15;42.33;94833.22;5054791;28;20229;-62
2022/08/01 11:41:23;;;;;;;2.28;1.88;;;;;;;27.06;42.15;94831.19;5053959;28;20221;-63